sensor_id;sensor_type;location;lat;lon;timestamp;temperature;humidity
42135;DHT22;28312;43.460;11.810;2023-10-19T00:03:18;14.70;79.80
42135;DHT22;28312;43.460;11.810;2023-10-19T00:07:22;14.70;80.00
42135;DHT22;28312;43.460;11.810;2023-10-19T00:11:26;14.60;80.40
42135;DHT22;28312;43.460;11.810;2023-10-19T00:15:34;14.70;80.70
42135;DHT22;28312;43.460;11.810;2023-10-19T00:19:41;14.70;81.00
42135;DHT22;28312;43.460;11.810;2023-10-19T00:24:01;14.80;81.10
42135;DHT22;28312;43.460;11.810;2023-10-19T00:28:08;14.90;81.20
42135;DHT22;28312;43.460;11.810;2023-10-19T00:32:12;15.00;81.20
42135;DHT22;28312;43.460;11.810;2023-10-19T00:36:18;15.00;81.20
42135;DHT22;28312;43.460;11.810;2023-10-19T00:40:27;15.10;81.30
42135;DHT22;28312;43.460;11.810;2023-10-19T00:44:40;15.10;81.40
42135;DHT22;28312;43.460;11.810;2023-10-19T00:48:56;15.20;81.40
42135;DHT22;28312;43.460;11.810;2023-10-19T00:53:02;15.30;81.40
42135;DHT22;28312;43.460;11.810;2023-10-19T00:57:10;15.30;81.50
42135;DHT22;28312;43.460;11.810;2023-10-19T01:01:15;15.40;81.50
42135;DHT22;28312;43.460;11.810;2023-10-19T01:05:46;15.50;81.50
42135;DHT22;28312;43.460;11.810;2023-10-19T01:10:02;15.50;81.60
42135;DHT22;28312;43.460;11.810;2023-10-19T01:14:34;15.60;81.70
42135;DHT22;28312;43.460;11.810;2023-10-19T01:19:26;15.70;81.70
42135;DHT22;28312;43.460;11.810;2023-10-19T01:23:55;15.80;81.70
42135;DHT22;28312;43.460;11.810;2023-10-19T01:28:06;15.80;81.70
42135;DHT22;28312;43.460;11.810;2023-10-19T01:32:12;15.90;81.80
42135;DHT22;28312;43.460;11.810;2023-10-19T01:36:18;16.00;81.80
42135;DHT22;28312;43.460;11.810;2023-10-19T01:40:31;16.10;81.80
42135;DHT22;28312;43.460;11.810;2023-10-19T01:44:37;16.10;81.80
42135;DHT22;28312;43.460;11.810;2023-10-19T01:48:42;16.20;81.80
42135;DHT22;28312;43.460;11.810;2023-10-19T01:52:46;16.20;81.90
42135;DHT22;28312;43.460;11.810;2023-10-19T01:56:55;16.20;81.90
42135;DHT22;28312;43.460;11.810;2023-10-19T02:01:00;16.30;81.90
42135;DHT22;28312;43.460;11.810;2023-10-19T02:05:04;16.30;81.90
42135;DHT22;28312;43.460;11.810;2023-10-19T02:09:13;16.40;81.90
42135;DHT22;28312;43.460;11.810;2023-10-19T02:13:21;16.40;81.90
42135;DHT22;28312;43.460;11.810;2023-10-19T02:17:24;16.50;81.90
42135;DHT22;28312;43.460;11.810;2023-10-19T02:21:29;16.60;81.80
42135;DHT22;28312;43.460;11.810;2023-10-19T02:25:34;16.60;81.90
42135;DHT22;28312;43.460;11.810;2023-10-19T02:29:41;16.60;81.90
42135;DHT22;28312;43.460;11.810;2023-10-19T02:33:46;16.70;82.00
42135;DHT22;28312;43.460;11.810;2023-10-19T02:37:49;16.70;81.90
42135;DHT22;28312;43.460;11.810;2023-10-19T02:41:53;16.70;82.00
42135;DHT22;28312;43.460;11.810;2023-10-19T02:45:57;16.80;81.90
42135;DHT22;28312;43.460;11.810;2023-10-19T02:50:03;16.80;81.80
42135;DHT22;28312;43.460;11.810;2023-10-19T02:54:15;16.90;81.80
42135;DHT22;28312;43.460;11.810;2023-10-19T02:58:23;16.80;81.80
42135;DHT22;28312;43.460;11.810;2023-10-19T03:02:27;16.90;81.80
42135;DHT22;28312;43.460;11.810;2023-10-19T03:06:32;16.80;81.90
42135;DHT22;28312;43.460;11.810;2023-10-19T03:10:37;16.90;81.80
42135;DHT22;28312;43.460;11.810;2023-10-19T03:14:46;16.80;81.90
42135;DHT22;28312;43.460;11.810;2023-10-19T03:18:51;16.80;81.90
42135;DHT22;28312;43.460;11.810;2023-10-19T03:22:55;16.80;82.10
42135;DHT22;28312;43.460;11.810;2023-10-19T03:27:10;16.80;82.00
42135;DHT22;28312;43.460;11.810;2023-10-19T03:31:23;16.80;82.10
42135;DHT22;28312;43.460;11.810;2023-10-19T03:35:31;16.80;82.00
42135;DHT22;28312;43.460;11.810;2023-10-19T03:39:34;16.80;82.10
42135;DHT22;28312;43.460;11.810;2023-10-19T03:43:41;16.80;82.20
42135;DHT22;28312;43.460;11.810;2023-10-19T03:47:47;16.80;82.20
42135;DHT22;28312;43.460;11.810;2023-10-19T03:51:53;16.90;82.20
42135;DHT22;28312;43.460;11.810;2023-10-19T03:56:14;16.90;82.20
42135;DHT22;28312;43.460;11.810;2023-10-19T04:00:21;16.90;82.30
42135;DHT22;28312;43.460;11.810;2023-10-19T04:04:31;16.90;82.10
42135;DHT22;28312;43.460;11.810;2023-10-19T04:08:36;17.00;82.20
42135;DHT22;28312;43.460;11.810;2023-10-19T04:12:44;16.90;82.30
42135;DHT22;28312;43.460;11.810;2023-10-19T04:16:47;17.00;82.50
42135;DHT22;28312;43.460;11.810;2023-10-19T04:20:52;17.00;82.40
42135;DHT22;28312;43.460;11.810;2023-10-19T04:24:56;17.00;82.50
42135;DHT22;28312;43.460;11.810;2023-10-19T04:29:01;17.00;82.60
42135;DHT22;28312;43.460;11.810;2023-10-19T04:33:13;17.00;82.50
42135;DHT22;28312;43.460;11.810;2023-10-19T04:37:29;17.00;82.60
42135;DHT22;28312;43.460;11.810;2023-10-19T04:41:37;17.00;82.60
42135;DHT22;28312;43.460;11.810;2023-10-19T04:45:58;17.10;82.50
42135;DHT22;28312;43.460;11.810;2023-10-19T04:50:02;17.10;82.50
42135;DHT22;28312;43.460;11.810;2023-10-19T04:54:10;17.10;82.50
42135;DHT22;28312;43.460;11.810;2023-10-19T04:58:20;17.10;82.60
42135;DHT22;28312;43.460;11.810;2023-10-19T05:02:42;17.00;82.50
42135;DHT22;28312;43.460;11.810;2023-10-19T05:12:11;17.00;82.50
42135;DHT22;28312;43.460;11.810;2023-10-19T05:16:17;17.00;82.40
42135;DHT22;28312;43.460;11.810;2023-10-19T05:20:20;16.90;82.40
42135;DHT22;28312;43.460;11.810;2023-10-19T05:24:25;17.00;82.50
42135;DHT22;28312;43.460;11.810;2023-10-19T05:28:29;17.00;82.50
42135;DHT22;28312;43.460;11.810;2023-10-19T05:32:33;17.00;82.50
42135;DHT22;28312;43.460;11.810;2023-10-19T05:36:36;17.00;82.40
42135;DHT22;28312;43.460;11.810;2023-10-19T05:40:40;17.00;82.30
42135;DHT22;28312;43.460;11.810;2023-10-19T05:44:46;17.00;82.40
42135;DHT22;28312;43.460;11.810;2023-10-19T05:48:50;17.10;82.40
42135;DHT22;28312;43.460;11.810;2023-10-19T05:52:54;17.10;82.40
42135;DHT22;28312;43.460;11.810;2023-10-19T05:57:01;17.10;82.40
42135;DHT22;28312;43.460;11.810;2023-10-19T06:01:06;17.10;82.40
42135;DHT22;28312;43.460;11.810;2023-10-19T06:05:11;17.10;82.50
42135;DHT22;28312;43.460;11.810;2023-10-19T06:09:14;17.10;82.50
42135;DHT22;28312;43.460;11.810;2023-10-19T06:13:19;17.20;82.50
42135;DHT22;28312;43.460;11.810;2023-10-19T06:17:23;17.20;82.60
42135;DHT22;28312;43.460;11.810;2023-10-19T06:21:28;17.30;82.60
42135;DHT22;28312;43.460;11.810;2023-10-19T06:25:33;17.40;82.60
42135;DHT22;28312;43.460;11.810;2023-10-19T06:29:41;17.60;82.60
42135;DHT22;28312;43.460;11.810;2023-10-19T06:33:45;17.70;82.60
42135;DHT22;28312;43.460;11.810;2023-10-19T06:37:49;17.80;82.40
42135;DHT22;28312;43.460;11.810;2023-10-19T06:41:53;17.90;82.30
42135;DHT22;28312;43.460;11.810;2023-10-19T06:45:56;18.00;82.10
42135;DHT22;28312;43.460;11.810;2023-10-19T06:50:00;18.10;81.90
42135;DHT22;28312;43.460;11.810;2023-10-19T06:54:05;18.10;81.80
42135;DHT22;28312;43.460;11.810;2023-10-19T06:58:11;18.10;81.70
42135;DHT22;28312;43.460;11.810;2023-10-19T07:02:16;18.10;81.60
42135;DHT22;28312;43.460;11.810;2023-10-19T07:06:23;18.10;81.40
42135;DHT22;28312;43.460;11.810;2023-10-19T07:10:26;18.20;81.40
42135;DHT22;28312;43.460;11.810;2023-10-19T07:14:33;18.20;81.50
42135;DHT22;28312;43.460;11.810;2023-10-19T07:18:38;18.20;81.90
42135;DHT22;28312;43.460;11.810;2023-10-19T07:22:42;18.30;81.70
42135;DHT22;28312;43.460;11.810;2023-10-19T07:26:56;18.40;81.50
42135;DHT22;28312;43.460;11.810;2023-10-19T07:31:25;18.50;81.50
42135;DHT22;28312;43.460;11.810;2023-10-19T07:35:35;18.60;81.60
42135;DHT22;28312;43.460;11.810;2023-10-19T07:39:45;18.70;81.60
42135;DHT22;28312;43.460;11.810;2023-10-19T07:43:49;18.80;81.40
42135;DHT22;28312;43.460;11.810;2023-10-19T07:47:53;18.90;81.20
42135;DHT22;28312;43.460;11.810;2023-10-19T07:51:57;19.00;81.70
42135;DHT22;28312;43.460;11.810;2023-10-19T07:56:01;19.30;82.30
42135;DHT22;28312;43.460;11.810;2023-10-19T08:00:05;19.70;82.30
42135;DHT22;28312;43.460;11.810;2023-10-19T08:04:09;20.40;82.40
42135;DHT22;28312;43.460;11.810;2023-10-19T08:08:13;21.20;81.40
42135;DHT22;28312;43.460;11.810;2023-10-19T08:12:17;21.60;80.90
42135;DHT22;28312;43.460;11.810;2023-10-19T08:16:20;22.40;80.60
42135;DHT22;28312;43.460;11.810;2023-10-19T08:20:24;22.90;79.20
42135;DHT22;28312;43.460;11.810;2023-10-19T08:24:35;23.40;78.60
42135;DHT22;28312;43.460;11.810;2023-10-19T08:28:38;23.70;77.40
42135;DHT22;28312;43.460;11.810;2023-10-19T08:32:42;23.90;77.20
42135;DHT22;28312;43.460;11.810;2023-10-19T08:36:46;23.70;75.80
42135;DHT22;28312;43.460;11.810;2023-10-19T08:40:50;23.30;76.50
42135;DHT22;28312;43.460;11.810;2023-10-19T08:44:54;23.30;77.30
42135;DHT22;28312;43.460;11.810;2023-10-19T08:48:57;23.70;77.30
42135;DHT22;28312;43.460;11.810;2023-10-19T08:53:04;24.10;76.70
42135;DHT22;28312;43.460;11.810;2023-10-19T08:57:08;24.60;76.10
42135;DHT22;28312;43.460;11.810;2023-10-19T09:01:12;24.90;75.10
42135;DHT22;28312;43.460;11.810;2023-10-19T09:05:18;24.60;74.40
42135;DHT22;28312;43.460;11.810;2023-10-19T09:09:30;24.20;74.80
42135;DHT22;28312;43.460;11.810;2023-10-19T09:13:50;24.20;75.30
42135;DHT22;28312;43.460;11.810;2023-10-19T09:17:54;24.50;75.60
42135;DHT22;28312;43.460;11.810;2023-10-19T09:21:58;25.10;75.40
42135;DHT22;28312;43.460;11.810;2023-10-19T09:26:03;25.60;74.10
42135;DHT22;28312;43.460;11.810;2023-10-19T09:30:08;26.10;73.80
42135;DHT22;28312;43.460;11.810;2023-10-19T09:34:13;26.60;73.30
42135;DHT22;28312;43.460;11.810;2023-10-19T09:38:18;27.10;72.20
42135;DHT22;28312;43.460;11.810;2023-10-19T09:42:31;27.40;71.20
42135;DHT22;28312;43.460;11.810;2023-10-19T09:46:37;27.60;70.70
42135;DHT22;28312;43.460;11.810;2023-10-19T09:50:51;27.80;70.30
42135;DHT22;28312;43.460;11.810;2023-10-19T09:55:03;27.90;69.80
42135;DHT22;28312;43.460;11.810;2023-10-19T09:59:26;28.00;69.30
42135;DHT22;28312;43.460;11.810;2023-10-19T10:03:49;28.10;69.00
42135;DHT22;28312;43.460;11.810;2023-10-19T10:12:25;28.10;68.40
42135;DHT22;28312;43.460;11.810;2023-10-19T10:16:30;27.80;68.00
42135;DHT22;28312;43.460;11.810;2023-10-19T10:20:34;27.20;67.90
42135;DHT22;28312;43.460;11.810;2023-10-19T10:24:41;26.90;69.20
42135;DHT22;28312;43.460;11.810;2023-10-19T10:33:38;26.70;68.50
42135;DHT22;28312;43.460;11.810;2023-10-19T10:37:53;26.70;69.20
42135;DHT22;28312;43.460;11.810;2023-10-19T10:41:58;26.90;69.00
42135;DHT22;28312;43.460;11.810;2023-10-19T10:46:06;26.70;67.80
42135;DHT22;28312;43.460;11.810;2023-10-19T10:50:19;26.40;68.30
42135;DHT22;28312;43.460;11.810;2023-10-19T10:54:24;26.70;69.30
42135;DHT22;28312;43.460;11.810;2023-10-19T10:58:28;27.10;69.50
42135;DHT22;28312;43.460;11.810;2023-10-19T11:02:32;27.80;69.00
42135;DHT22;28312;43.460;11.810;2023-10-19T11:06:53;28.40;67.70
42135;DHT22;28312;43.460;11.810;2023-10-19T11:11:03;28.80;67.30
42135;DHT22;28312;43.460;11.810;2023-10-19T11:15:08;29.10;66.70
42135;DHT22;28312;43.460;11.810;2023-10-19T11:19:14;29.60;66.80
42135;DHT22;28312;43.460;11.810;2023-10-19T11:23:18;29.80;64.90
42135;DHT22;28312;43.460;11.810;2023-10-19T11:27:25;29.60;65.20
42135;DHT22;28312;43.460;11.810;2023-10-19T11:31:32;29.40;64.90
42135;DHT22;28312;43.460;11.810;2023-10-19T11:35:44;29.20;65.30
42135;DHT22;28312;43.460;11.810;2023-10-19T11:39:48;29.30;64.60
42135;DHT22;28312;43.460;11.810;2023-10-19T11:43:55;29.20;64.40
42135;DHT22;28312;43.460;11.810;2023-10-19T11:48:00;28.70;63.60
42135;DHT22;28312;43.460;11.810;2023-10-19T11:52:08;28.10;63.30
42135;DHT22;28312;43.460;11.810;2023-10-19T11:56:13;27.50;63.30
42135;DHT22;28312;43.460;11.810;2023-10-19T12:00:17;27.00;63.90
42135;DHT22;28312;43.460;11.810;2023-10-19T12:04:25;26.60;64.00
42135;DHT22;28312;43.460;11.810;2023-10-19T12:08:29;26.40;64.20
42135;DHT22;28312;43.460;11.810;2023-10-19T12:12:35;26.30;64.50
42135;DHT22;28312;43.460;11.810;2023-10-19T12:16:56;26.30;65.10
42135;DHT22;28312;43.460;11.810;2023-10-19T12:21:03;27.00;66.10
42135;DHT22;28312;43.460;11.810;2023-10-19T12:25:08;27.90;65.10
42135;DHT22;28312;43.460;11.810;2023-10-19T12:29:11;28.40;63.70
42135;DHT22;28312;43.460;11.810;2023-10-19T12:33:18;28.70;62.30
42135;DHT22;28312;43.460;11.810;2023-10-19T12:37:24;28.80;62.50
42135;DHT22;28312;43.460;11.810;2023-10-19T12:41:31;28.90;61.60
42135;DHT22;28312;43.460;11.810;2023-10-19T12:45:35;28.60;61.10
42135;DHT22;28312;43.460;11.810;2023-10-19T12:49:40;28.40;61.10
42135;DHT22;28312;43.460;11.810;2023-10-19T12:53:44;28.30;60.40
42135;DHT22;28312;43.460;11.810;2023-10-19T12:57:49;28.10;60.30
42135;DHT22;28312;43.460;11.810;2023-10-19T13:01:54;28.00;60.50
42135;DHT22;28312;43.460;11.810;2023-10-19T13:06:01;27.80;60.10
42135;DHT22;28312;43.460;11.810;2023-10-19T13:10:08;27.90;61.20
42135;DHT22;28312;43.460;11.810;2023-10-19T13:14:12;28.10;60.30
42135;DHT22;28312;43.460;11.810;2023-10-19T13:18:15;27.90;59.30
42135;DHT22;28312;43.460;11.810;2023-10-19T13:22:23;27.40;59.20
42135;DHT22;28312;43.460;11.810;2023-10-19T13:26:26;27.00;58.90
42135;DHT22;28312;43.460;11.810;2023-10-19T13:30:30;26.50;59.30
42135;DHT22;28312;43.460;11.810;2023-10-19T13:35:01;26.30;60.60
42135;DHT22;28312;43.460;11.810;2023-10-19T13:39:04;26.30;60.40
42135;DHT22;28312;43.460;11.810;2023-10-19T13:43:10;26.30;60.80
42135;DHT22;28312;43.460;11.810;2023-10-19T13:47:35;26.40;60.60
42135;DHT22;28312;43.460;11.810;2023-10-19T13:51:39;26.40;60.50
42135;DHT22;28312;43.460;11.810;2023-10-19T13:55:43;26.20;60.50
42135;DHT22;28312;43.460;11.810;2023-10-19T13:59:47;26.00;60.60
42135;DHT22;28312;43.460;11.810;2023-10-19T14:03:52;25.70;60.80
42135;DHT22;28312;43.460;11.810;2023-10-19T14:07:58;25.50;61.00
42135;DHT22;28312;43.460;11.810;2023-10-19T14:12:01;25.30;61.20
42135;DHT22;28312;43.460;11.810;2023-10-19T14:16:08;25.10;61.40
42135;DHT22;28312;43.460;11.810;2023-10-19T14:20:13;25.00;61.70
42135;DHT22;28312;43.460;11.810;2023-10-19T14:24:17;25.00;62.00
42135;DHT22;28312;43.460;11.810;2023-10-19T14:28:22;25.00;62.00
42135;DHT22;28312;43.460;11.810;2023-10-19T14:32:25;25.10;62.50
42135;DHT22;28312;43.460;11.810;2023-10-19T14:36:30;25.40;62.40
42135;DHT22;28312;43.460;11.810;2023-10-19T14:40:33;25.80;62.40
42135;DHT22;28312;43.460;11.810;2023-10-19T14:44:37;26.20;62.10
42135;DHT22;28312;43.460;11.810;2023-10-19T14:48:40;26.50;61.40
42135;DHT22;28312;43.460;11.810;2023-10-19T14:52:47;26.50;60.80
42135;DHT22;28312;43.460;11.810;2023-10-19T14:56:50;26.30;61.00
42135;DHT22;28312;43.460;11.810;2023-10-19T15:00:54;26.20;61.10
42135;DHT22;28312;43.460;11.810;2023-10-19T15:04:58;26.10;60.80
42135;DHT22;28312;43.460;11.810;2023-10-19T15:09:02;25.80;60.90
42135;DHT22;28312;43.460;11.810;2023-10-19T15:13:06;25.70;61.20
42135;DHT22;28312;43.460;11.810;2023-10-19T15:17:10;25.50;61.20
42135;DHT22;28312;43.460;11.810;2023-10-19T15:21:14;25.30;61.50
42135;DHT22;28312;43.460;11.810;2023-10-19T15:25:18;25.30;61.60
42135;DHT22;28312;43.460;11.810;2023-10-19T15:29:23;25.10;61.50
42135;DHT22;28312;43.460;11.810;2023-10-19T15:33:27;25.10;61.60
42135;DHT22;28312;43.460;11.810;2023-10-19T15:37:31;24.80;61.60
42135;DHT22;28312;43.460;11.810;2023-10-19T15:41:35;24.60;61.70
42135;DHT22;28312;43.460;11.810;2023-10-19T15:45:39;24.50;61.90
42135;DHT22;28312;43.460;11.810;2023-10-19T15:49:50;24.30;62.00
42135;DHT22;28312;43.460;11.810;2023-10-19T15:53:56;24.10;62.20
42135;DHT22;28312;43.460;11.810;2023-10-19T15:58:00;24.00;62.20
42135;DHT22;28312;43.460;11.810;2023-10-19T16:02:06;23.90;62.20
42135;DHT22;28312;43.460;11.810;2023-10-19T16:06:10;23.80;62.30
42135;DHT22;28312;43.460;11.810;2023-10-19T16:10:14;23.70;62.40
42135;DHT22;28312;43.460;11.810;2023-10-19T16:14:18;23.60;62.50
42135;DHT22;28312;43.460;11.810;2023-10-19T16:18:22;23.50;62.60
42135;DHT22;28312;43.460;11.810;2023-10-19T16:22:26;23.40;62.70
42135;DHT22;28312;43.460;11.810;2023-10-19T16:26:31;23.20;62.80
42135;DHT22;28312;43.460;11.810;2023-10-19T16:30:35;23.10;62.90
42135;DHT22;28312;43.460;11.810;2023-10-19T16:34:38;23.10;63.10
42135;DHT22;28312;43.460;11.810;2023-10-19T16:38:42;23.00;63.20
42135;DHT22;28312;43.460;11.810;2023-10-19T16:42:46;23.00;63.20
42135;DHT22;28312;43.460;11.810;2023-10-19T16:46:50;22.90;63.30
42135;DHT22;28312;43.460;11.810;2023-10-19T16:50:54;22.90;63.30
42135;DHT22;28312;43.460;11.810;2023-10-19T16:55:04;22.90;63.40
42135;DHT22;28312;43.460;11.810;2023-10-19T16:59:09;22.90;63.50
42135;DHT22;28312;43.460;11.810;2023-10-19T17:03:15;22.80;63.50
42135;DHT22;28312;43.460;11.810;2023-10-19T17:07:18;22.70;63.60
42135;DHT22;28312;43.460;11.810;2023-10-19T17:11:22;22.70;63.60
42135;DHT22;28312;43.460;11.810;2023-10-19T17:15:27;22.70;63.70
42135;DHT22;28312;43.460;11.810;2023-10-19T17:19:33;22.60;63.80
42135;DHT22;28312;43.460;11.810;2023-10-19T17:23:38;22.60;63.90
42135;DHT22;28312;43.460;11.810;2023-10-19T17:27:43;22.60;63.80
42135;DHT22;28312;43.460;11.810;2023-10-19T17:31:46;22.60;64.00
42135;DHT22;28312;43.460;11.810;2023-10-19T17:35:51;22.60;64.10
42135;DHT22;28312;43.460;11.810;2023-10-19T17:39:54;22.60;64.20
42135;DHT22;28312;43.460;11.810;2023-10-19T17:43:58;22.50;64.20
42135;DHT22;28312;43.460;11.810;2023-10-19T17:48:02;22.50;64.30
42135;DHT22;28312;43.460;11.810;2023-10-19T17:52:07;22.40;64.40
42135;DHT22;28312;43.460;11.810;2023-10-19T17:56:11;22.40;64.50
42135;DHT22;28312;43.460;11.810;2023-10-19T18:00:16;22.40;64.50
42135;DHT22;28312;43.460;11.810;2023-10-19T18:04:22;22.20;64.70
42135;DHT22;28312;43.460;11.810;2023-10-19T18:08:26;22.20;64.70
42135;DHT22;28312;43.460;11.810;2023-10-19T18:12:29;22.20;64.70
42135;DHT22;28312;43.460;11.810;2023-10-19T18:16:33;22.20;64.80
42135;DHT22;28312;43.460;11.810;2023-10-19T18:20:37;22.20;64.90
42135;DHT22;28312;43.460;11.810;2023-10-19T18:24:40;22.20;64.90
42135;DHT22;28312;43.460;11.810;2023-10-19T18:28:44;22.10;64.90
42135;DHT22;28312;43.460;11.810;2023-10-19T18:32:51;22.10;64.90
42135;DHT22;28312;43.460;11.810;2023-10-19T18:36:55;22.10;64.90
42135;DHT22;28312;43.460;11.810;2023-10-19T18:41:00;22.10;64.90
42135;DHT22;28312;43.460;11.810;2023-10-19T18:45:05;22.10;64.90
42135;DHT22;28312;43.460;11.810;2023-10-19T18:49:08;22.10;65.00
42135;DHT22;28312;43.460;11.810;2023-10-19T18:53:14;22.00;65.10
42135;DHT22;28312;43.460;11.810;2023-10-19T18:57:17;21.90;65.20
42135;DHT22;28312;43.460;11.810;2023-10-19T19:01:21;21.90;65.40
42135;DHT22;28312;43.460;11.810;2023-10-19T19:05:25;21.80;65.60
42135;DHT22;28312;43.460;11.810;2023-10-19T19:09:28;21.70;65.60
42135;DHT22;28312;43.460;11.810;2023-10-19T19:13:33;21.70;65.70
42135;DHT22;28312;43.460;11.810;2023-10-19T19:17:37;21.70;65.80
42135;DHT22;28312;43.460;11.810;2023-10-19T19:21:42;21.70;65.90
42135;DHT22;28312;43.460;11.810;2023-10-19T19:25:46;21.70;65.90
42135;DHT22;28312;43.460;11.810;2023-10-19T19:29:50;21.70;66.00
42135;DHT22;28312;43.460;11.810;2023-10-19T19:33:54;21.70;66.00
42135;DHT22;28312;43.460;11.810;2023-10-19T19:37:57;21.70;66.00
42135;DHT22;28312;43.460;11.810;2023-10-19T19:42:01;21.60;66.10
42135;DHT22;28312;43.460;11.810;2023-10-19T19:46:06;21.60;66.10
42135;DHT22;28312;43.460;11.810;2023-10-19T19:50:11;21.60;66.10
42135;DHT22;28312;43.460;11.810;2023-10-19T19:54:15;21.50;66.10
42135;DHT22;28312;43.460;11.810;2023-10-19T19:58:20;21.50;66.10
42135;DHT22;28312;43.460;11.810;2023-10-19T20:02:24;21.40;66.20
42135;DHT22;28312;43.460;11.810;2023-10-19T20:06:28;21.30;66.40
42135;DHT22;28312;43.460;11.810;2023-10-19T20:14:42;21.20;66.60
42135;DHT22;28312;43.460;11.810;2023-10-19T20:18:46;21.20;66.80
42135;DHT22;28312;43.460;11.810;2023-10-19T20:22:50;21.10;67.00
42135;DHT22;28312;43.460;11.810;2023-10-19T20:26:55;21.10;67.20
42135;DHT22;28312;43.460;11.810;2023-10-19T20:30:59;21.10;67.40
42135;DHT22;28312;43.460;11.810;2023-10-19T20:35:04;21.10;67.50
42135;DHT22;28312;43.460;11.810;2023-10-19T20:39:09;21.10;67.60
42135;DHT22;28312;43.460;11.810;2023-10-19T20:43:16;21.10;67.70
42135;DHT22;28312;43.460;11.810;2023-10-19T20:47:20;21.10;67.70
42135;DHT22;28312;43.460;11.810;2023-10-19T20:51:23;21.20;67.70
42135;DHT22;28312;43.460;11.810;2023-10-19T20:55:28;21.20;67.70
42135;DHT22;28312;43.460;11.810;2023-10-19T20:59:32;21.20;67.80
42135;DHT22;28312;43.460;11.810;2023-10-19T21:03:36;21.20;67.90
42135;DHT22;28312;43.460;11.810;2023-10-19T21:07:41;21.10;68.00
42135;DHT22;28312;43.460;11.810;2023-10-19T21:11:44;21.10;68.10
42135;DHT22;28312;43.460;11.810;2023-10-19T21:15:48;21.10;68.20
42135;DHT22;28312;43.460;11.810;2023-10-19T21:19:52;21.20;68.20
42135;DHT22;28312;43.460;11.810;2023-10-19T21:23:56;21.20;68.30
42135;DHT22;28312;43.460;11.810;2023-10-19T21:28:02;21.30;68.30
42135;DHT22;28312;43.460;11.810;2023-10-19T21:32:07;21.30;68.30
42135;DHT22;28312;43.460;11.810;2023-10-19T21:36:11;21.30;68.30
42135;DHT22;28312;43.460;11.810;2023-10-19T21:40:15;21.30;68.50
42135;DHT22;28312;43.460;11.810;2023-10-19T21:44:19;21.40;68.70
42135;DHT22;28312;43.460;11.810;2023-10-19T21:48:24;21.40;68.80
42135;DHT22;28312;43.460;11.810;2023-10-19T21:52:28;21.40;69.00
42135;DHT22;28312;43.460;11.810;2023-10-19T21:56:31;21.40;69.10
42135;DHT22;28312;43.460;11.810;2023-10-19T22:00:35;21.50;69.10
42135;DHT22;28312;43.460;11.810;2023-10-19T22:04:39;21.40;69.00
42135;DHT22;28312;43.460;11.810;2023-10-19T22:08:43;21.40;69.20
42135;DHT22;28312;43.460;11.810;2023-10-19T22:12:47;21.40;69.30
42135;DHT22;28312;43.460;11.810;2023-10-19T22:16:52;21.30;69.40
42135;DHT22;28312;43.460;11.810;2023-10-19T22:20:55;21.20;69.40
42135;DHT22;28312;43.460;11.810;2023-10-19T22:24:59;21.20;69.60
42135;DHT22;28312;43.460;11.810;2023-10-19T22:29:03;21.10;69.80
42135;DHT22;28312;43.460;11.810;2023-10-19T22:33:10;21.10;69.80
42135;DHT22;28312;43.460;11.810;2023-10-19T22:37:14;21.00;69.80
42135;DHT22;28312;43.460;11.810;2023-10-19T22:41:18;20.90;69.80
42135;DHT22;28312;43.460;11.810;2023-10-19T22:45:24;20.80;69.90
42135;DHT22;28312;43.460;11.810;2023-10-19T22:49:28;20.70;69.90
42135;DHT22;28312;43.460;11.810;2023-10-19T22:53:35;20.70;69.90
42135;DHT22;28312;43.460;11.810;2023-10-19T22:57:41;20.70;70.00
42135;DHT22;28312;43.460;11.810;2023-10-19T23:01:45;20.60;70.00
42135;DHT22;28312;43.460;11.810;2023-10-19T23:05:49;20.60;70.10
42135;DHT22;28312;43.460;11.810;2023-10-19T23:09:54;20.50;70.30
42135;DHT22;28312;43.460;11.810;2023-10-19T23:13:59;20.50;70.30
42135;DHT22;28312;43.460;11.810;2023-10-19T23:18:07;20.50;70.30
42135;DHT22;28312;43.460;11.810;2023-10-19T23:22:13;20.40;70.40
42135;DHT22;28312;43.460;11.810;2023-10-19T23:26:17;20.40;70.40
42135;DHT22;28312;43.460;11.810;2023-10-19T23:30:24;20.40;70.50
42135;DHT22;28312;43.460;11.810;2023-10-19T23:34:28;20.30;70.50
42135;DHT22;28312;43.460;11.810;2023-10-19T23:38:31;20.30;70.50
42135;DHT22;28312;43.460;11.810;2023-10-19T23:42:36;20.30;70.60
42135;DHT22;28312;43.460;11.810;2023-10-19T23:46:40;20.20;70.70
42135;DHT22;28312;43.460;11.810;2023-10-19T23:50:45;20.20;70.70
42135;DHT22;28312;43.460;11.810;2023-10-19T23:54:49;20.20;70.80
42135;DHT22;28312;43.460;11.810;2023-10-19T23:58:53;20.10;70.80
